WetterOnline ( http://www.wetteronline.de )

Wetter aktuell Teltow

Aktuelles Wetter: Berlin-Dahlem (70m)

6-stündlich | Neueste Meldungen
Ortszeit Temperatur Wetter
Mo, 18.03. 13:00 7.4° C bewölkt
Mo, 18.03. 7:00 3.6° C bewölkt
Mo, 18.03. 1:00 3.9° C leicht bewölkt
So, 17.03. 19:00 7.3° C wolkig
So, 17.03. 13:00 12.1° C bewölkt
So, 17.03. 7:00 8.3° C bewölkt
So, 17.03. 1:00 8.5° C bewölkt
Sa, 16.03. 19:00 5.9° C leichter Regen
Ortszeit Temperatur Wetter
Mo, 18.03. 18:00 5.7° C leicht bewölkt
Mo, 18.03. 17:00 5.4° C leicht bewölkt
Mo, 18.03. 16:00 8.2° C wolkig
Mo, 18.03. 15:00 7.9° C Graupelschauer
Mo, 18.03. 14:00 8.2° C leicht bewölkt
Mo, 18.03. 13:00 7.4° C bewölkt
Ortszeit Relative Feuchte Sichtweite
Mo, 18.03. 13:00 62% 40 km
Mo, 18.03. 7:00 79% 40 km
Mo, 18.03. 1:00 81% 55 km
So, 17.03. 19:00 77% 45 km
So, 17.03. 13:00 58% 35 km
So, 17.03. 7:00 75% 40 km
So, 17.03. 1:00 89% 40 km
Sa, 16.03. 19:00 100% 9 km
Ortszeit Relative Feuchte Sichtweite
Mo, 18.03. 18:00 74% 35 km
Mo, 18.03. 17:00 79% 30 km
Mo, 18.03. 16:00 61% 2.0 km
Mo, 18.03. 15:00 58% 8 km
Mo, 18.03. 14:00 60% 30 km
Mo, 18.03. 13:00 62% 40 km
Ortszeit Niederschlagsmenge Niederschlagsart
Mo, 18.03. 13:00 0.1 l/m2 in 6 Std. Regenschauer
Mo, 18.03. 7:00 0.0 l/m2 in 12 Std. -
Mo, 18.03. 1:00 0.0 l/m2 in 6 Std. -
So, 17.03. 19:00 0.9 l/m2 in 12 Std. Regenschauer
So, 17.03. 13:00 0.0 l/m2 in 6 Std. -
So, 17.03. 7:00 0.2 l/m2 in 12 Std. -
So, 17.03. 1:00 0.2 l/m2 in 6 Std. Regen
Sa, 16.03. 19:00 5 l/m2 in 12 Std. Regen
Ortszeit Niederschlagsmenge Niederschlagsart
Mo, 18.03. 18:00 keine Meldung -
Mo, 18.03. 17:00 keine Meldung -
Mo, 18.03. 16:00 keine Meldung -
Mo, 18.03. 15:00 keine Meldung -
Mo, 18.03. 14:00 keine Meldung -
Mo, 18.03. 13:00 keine Meldung -
Ortszeit Stärke Spitze Richtung
km/h Bft. km/h Grad Sektor
Mo, 18.03. 13:00 25 4 54 260° W
Mo, 18.03. 7:00 22 4 - 240° SW
Mo, 18.03. 1:00 14 3 47 240° SW
So, 17.03. 19:00 22 4 72 290° W
So, 17.03. 13:00 25 4 58 240° SW
So, 17.03. 7:00 22 4 - 210° SW
So, 17.03. 1:00 18 3 - 210° SW
Sa, 16.03. 19:00 14 3 - 190° S
Ortszeit Stärke Spitze Richtung
km/h Bft. km/h Grad Sektor
Mo, 18.03. 18:00 25 4 47 270° W
Mo, 18.03. 17:00 29 5 58 260° W
Mo, 18.03. 16:00 25 4 61 280° W
Mo, 18.03. 15:00 36 5 61 260° W
Mo, 18.03. 14:00 29 5 58 250° W
Mo, 18.03. 13:00 25 4 54 260° W
Ortszeit Untergrenze Bedeckung Gattung
total tief tief mittel hoch
Mo, 18.03. 13:00 900 m 7/8 7/8 Cu - -
Mo, 18.03. 7:00 840 m 7/8 7/8 Sc - -
Mo, 18.03. 1:00 5100 m 2/8 2/8 - Ac -
So, 17.03. 19:00 750 m 7/8 2/8 Cb As -
So, 17.03. 13:00 900 m 7/8 7/8 Cu - -
So, 17.03. 7:00 1320 m 7/8 6/8 Sc - Ci
So, 17.03. 1:00 1380 m 7/8 7/8 Sc - -
Sa, 16.03. 19:00 300 m 8/8 8/8 St - -
Ortszeit Bedeckungsgrad in Achtel und Wolkenuntergrenze
Mo, 18.03. 18:00 1(1290m)
Mo, 18.03. 17:00 3(1200m)
Mo, 18.03. 16:00 4(990m)
Mo, 18.03. 15:00 3(840m)
Mo, 18.03. 14:00 2(840m)
Mo, 18.03. 13:00 4(900m) 5(1200m)
Ortszeit Luftdruck NN (hPa) Tendenz (hPa in 3 Std.)
Mo, 18.03. 13:00 1011 + 1,1
Mo, 18.03. 7:00 1009 + 1,3
Mo, 18.03. 1:00 1007 + 1,7
So, 17.03. 19:00 1003 + 2,3
So, 17.03. 13:00 999 + 0,3
So, 17.03. 7:00 999 - 1,6
So, 17.03. 1:00 1002 - 0,8
Sa, 16.03. 19:00 1004 - 1,4
Ortszeit Luftdruck NN (hPa) Tendenz (hPa in 3 Std.)
Mo, 18.03. 18:00 1014 + 2,5
Mo, 18.03. 17:00 1013 + 1,9
Mo, 18.03. 16:00 1012 + 1,0
Mo, 18.03. 15:00 1011 + 0,5
Mo, 18.03. 14:00 1011 + 0,8
Mo, 18.03. 13:00 1011 + 1,1
Ortszeit Schneehöhe (cm)
Mo, 18.03. 13:00 0
Mo, 18.03. 7:00 0
Mo, 18.03. 1:00 0
So, 17.03. 19:00 0
So, 17.03. 13:00 0
So, 17.03. 7:00 0
So, 17.03. 1:00 0
Sa, 16.03. 19:00 0
Ortszeit Schneehöhe (cm)
Mo, 18.03. 18:00 -
Mo, 18.03. 17:00 -
Mo, 18.03. 16:00 -
Mo, 18.03. 15:00 -
Mo, 18.03. 14:00 -
Mo, 18.03. 13:00 0
Link zu dieser Seite / Seite empfehlen

Das Wetter in ...